createdAt,value
2019-05-21T00:00:26.589Z,11.40
2019-05-21T00:02:58.373Z,11.40
2019-05-21T00:05:30.024Z,11.39
2019-05-21T00:08:01.834Z,11.38
2019-05-21T00:10:33.561Z,11.36
2019-05-21T00:13:05.650Z,11.31
2019-05-21T00:15:38.886Z,11.30
2019-05-21T00:18:10.776Z,11.23
2019-05-21T00:20:42.437Z,11.24
2019-05-21T00:23:14.266Z,11.24
2019-05-21T00:25:46.274Z,11.22
2019-05-21T00:28:34.610Z,11.15
2019-05-21T00:32:00.531Z,11.08
2019-05-21T00:35:28.698Z,11.03
2019-05-21T00:38:55.051Z,10.96
2019-05-21T00:42:04.429Z,10.99
2019-05-21T00:44:41.285Z,10.93
2019-05-21T00:47:14.068Z,10.85
2019-05-21T00:49:45.890Z,10.79
2019-05-21T00:52:17.527Z,10.76
2019-05-21T00:54:49.446Z,10.74
2019-05-21T00:57:21.064Z,10.78
2019-05-21T00:59:52.872Z,10.82
2019-05-21T01:02:24.593Z,10.84
2019-05-21T01:05:00.682Z,10.88
2019-05-21T01:07:30.107Z,10.88
2019-05-21T01:10:01.770Z,10.89
2019-05-21T01:12:33.736Z,10.89
2019-05-21T01:15:08.313Z,10.82
2019-05-21T01:17:40.046Z,10.74
2019-05-21T01:20:12.542Z,10.76
2019-05-21T01:22:44.773Z,10.72
2019-05-21T01:25:17.499Z,10.71
2019-05-21T01:27:49.234Z,10.70
2019-05-21T01:30:20.971Z,10.72
2019-05-21T01:32:52.806Z,10.69
2019-05-21T01:35:24.529Z,10.65
2019-05-21T01:37:56.267Z,10.51
2019-05-21T01:40:27.998Z,10.45
2019-05-21T01:43:03.203Z,10.45
2019-05-21T01:45:33.052Z,10.43
2019-05-21T01:48:04.887Z,10.44
2019-05-21T01:50:36.640Z,10.46
2019-05-21T01:53:08.376Z,10.50
2019-05-21T01:55:40.130Z,10.51
2019-05-21T01:58:11.849Z,10.52
2019-05-21T02:00:43.707Z,10.49
2019-05-21T02:03:15.399Z,10.47
2019-05-21T02:05:47.138Z,10.39
2019-05-21T02:08:19.024Z,10.40
2019-05-21T02:10:50.679Z,10.38
2019-05-21T02:13:22.679Z,10.34
2019-05-21T02:15:54.516Z,10.21
2019-05-21T02:18:26.242Z,10.05
2019-05-21T02:20:58.941Z,9.98
2019-05-21T02:23:30.667Z,9.91
2019-05-21T02:26:02.495Z,9.89
2019-05-21T02:28:34.234Z,9.88
2019-05-21T02:31:06.143Z,9.94
2019-05-21T02:33:37.780Z,10.01
2019-05-21T02:36:09.502Z,10.08
2019-05-21T02:38:41.242Z,10.13
2019-05-21T02:41:12.966Z,10.11
2019-05-21T02:43:44.854Z,10.06
2019-05-21T02:46:16.505Z,10.07
2019-05-21T02:48:48.342Z,10.09
2019-05-21T02:51:20.072Z,10.12
2019-05-21T02:53:51.804Z,10.17
2019-05-21T02:56:23.533Z,10.19
2019-05-21T02:58:55.363Z,10.19
2019-05-21T03:01:28.742Z,10.10
2019-05-21T03:04:00.370Z,10.07
2019-05-21T03:06:32.102Z,10.12
2019-05-21T03:09:05.549Z,10.16
2019-05-21T03:11:37.649Z,10.19
2019-05-21T03:14:09.277Z,10.18
2019-05-21T03:16:41.001Z,10.18
2019-05-21T03:19:16.659Z,10.22
2019-05-21T03:21:47.682Z,10.30
2019-05-21T03:24:19.341Z,10.32
2019-05-21T03:26:51.070Z,10.37
2019-05-21T03:29:22.908Z,10.44
2019-05-21T03:31:54.680Z,10.49
2019-05-21T03:34:26.355Z,10.58
2019-05-21T03:36:58.182Z,10.69
2019-05-21T03:39:29.916Z,11.28
2019-05-21T03:42:02.019Z,12.03
2019-05-21T03:44:33.896Z,12.48
2019-05-21T03:47:05.520Z,14.94
2019-05-21T03:49:37.258Z,16.51
2019-05-21T03:52:08.999Z,17.37
2019-05-21T03:54:40.919Z,18.66
2019-05-21T03:57:13.721Z,19.74
2019-05-21T03:59:45.573Z,20.83
2019-05-21T04:02:17.299Z,21.66
2019-05-21T04:04:49.034Z,22.32
2019-05-21T04:07:20.783Z,22.80
2019-05-21T04:09:52.528Z,22.93
2019-05-21T04:12:24.260Z,23.52
2019-05-21T04:15:06.697Z,24.13
2019-05-21T04:17:38.390Z,24.50
2019-05-21T04:20:11.766Z,25.04
2019-05-21T04:22:53.037Z,25.56
2019-05-21T04:25:25.603Z,26.04
2019-05-21T04:27:57.341Z,26.66
2019-05-21T04:30:29.241Z,27.48
2019-05-21T04:33:01.072Z,28.18
2019-05-21T04:35:32.927Z,28.21
2019-05-21T04:38:04.668Z,28.23
2019-05-21T04:40:36.399Z,28.61
2019-05-21T04:43:08.749Z,28.58
2019-05-21T04:45:40.488Z,29.52
2019-05-21T04:48:12.324Z,30.09
2019-05-21T04:50:44.065Z,30.64
2019-05-21T04:53:15.797Z,30.55
2019-05-21T04:55:49.083Z,30.35
2019-05-21T04:58:20.979Z,30.63
2019-05-21T05:00:52.633Z,31.14
2019-05-21T05:03:24.360Z,31.40
2019-05-21T05:06:11.885Z,31.45
2019-05-21T05:08:44.952Z,32.11
2019-05-21T05:11:16.484Z,32.11
2019-05-21T05:13:48.321Z,32.68
2019-05-21T05:16:20.069Z,33.07
2019-05-21T05:18:51.823Z,33.59
2019-05-21T05:21:23.553Z,33.62
2019-05-21T05:23:58.100Z,33.21
2019-05-21T05:26:31.485Z,33.18
2019-05-21T05:29:03.213Z,33.92
2019-05-21T05:31:34.943Z,34.07
2019-05-21T05:34:06.694Z,34.18
2019-05-21T05:36:38.500Z,34.19
2019-05-21T08:41:52.383Z,27.52
2019-05-21T08:44:24.008Z,26.44
2019-05-21T08:46:58.412Z,26.86
2019-05-21T08:49:30.476Z,26.53
2019-05-21T08:52:02.178Z,26.35
2019-05-21T08:54:56.242Z,26.34
2019-05-21T08:57:32.841Z,26.44
2019-05-21T09:00:13.935Z,26.66
2019-05-21T09:02:45.771Z,26.96
2019-05-21T09:05:17.856Z,27.43
2019-05-21T09:07:53.445Z,27.86
2019-05-21T09:10:22.813Z,27.14
2019-05-21T09:12:59.050Z,26.99
2019-05-21T09:15:30.884Z,26.63
2019-05-21T09:18:02.504Z,26.67
2019-05-21T09:20:36.185Z,27.18
2019-05-21T09:23:07.850Z,26.90
2019-05-21T09:25:40.884Z,26.84
2019-05-21T09:28:12.624Z,26.95
2019-05-21T09:30:45.467Z,27.63
2019-05-21T09:33:17.297Z,27.92
2019-05-21T09:35:49.162Z,28.31
2019-05-21T09:38:20.804Z,28.05
2019-05-21T09:40:52.914Z,28.64
2019-05-21T09:43:24.627Z,29.54
2019-05-21T09:45:56.484Z,28.64
2019-05-21T09:48:30.923Z,28.16
2019-05-21T09:51:04.534Z,28.54
2019-05-21T09:53:36.296Z,28.32
2019-05-21T09:56:26.365Z,28.14
2019-05-21T09:59:09.225Z,28.67
2019-05-21T10:01:48.289Z,28.26
2019-05-21T10:04:20.498Z,27.87
2019-05-21T10:06:54.021Z,27.64
2019-05-21T10:09:25.847Z,26.94
2019-05-21T10:11:59.230Z,26.57
2019-05-21T10:14:34.240Z,26.30
2019-05-21T10:17:06.184Z,26.29
2019-05-21T10:19:37.772Z,26.18
2019-05-21T10:22:10.265Z,26.23
2019-05-21T10:24:42.716Z,26.17
2019-05-21T10:27:15.555Z,25.71
2019-05-21T10:29:47.296Z,25.51
2019-05-21T10:32:20.192Z,25.65
2019-05-21T10:34:52.024Z,26.12
2019-05-21T10:37:24.723Z,26.44
2019-05-21T10:39:57.453Z,26.57
2019-05-21T10:42:34.359Z,26.28
2019-05-21T10:45:08.159Z,26.21
2019-05-21T10:47:43.267Z,26.18
2019-05-21T10:50:15.225Z,26.16
2019-05-21T10:52:46.859Z,26.05
2019-05-21T10:55:21.812Z,25.62
2019-05-21T10:57:53.971Z,25.61
2019-05-21T11:00:27.357Z,25.63
2019-05-21T11:03:03.831Z,25.84
2019-05-21T11:05:39.042Z,25.66
2019-05-21T11:08:23.354Z,25.48
2019-05-21T11:10:46.153Z,25.34
2019-05-21T11:13:17.880Z,25.16
2019-05-21T11:15:49.710Z,24.93
2019-05-21T11:18:21.425Z,25.20
2019-05-21T11:20:53.151Z,25.27
2019-05-21T11:23:25.063Z,25.47
2019-05-21T11:25:56.687Z,25.40
2019-05-21T11:28:29.433Z,25.41
2019-05-21T11:31:01.150Z,25.71
2019-05-21T11:33:33.050Z,25.72
2019-05-21T11:36:06.234Z,25.74
2019-05-21T11:38:40.272Z,26.36
2019-05-21T11:41:11.499Z,26.90
2019-05-21T11:43:43.296Z,26.96
2019-05-21T11:46:15.375Z,26.81
2019-05-21T11:48:47.379Z,27.01
2019-05-21T11:51:18.895Z,26.86
2019-05-21T11:53:50.972Z,26.88
2019-05-21T11:56:24.125Z,26.40
2019-05-21T11:58:55.764Z,26.17
2019-05-21T12:01:27.493Z,26.19
2019-05-21T12:03:59.226Z,26.13
2019-05-21T12:06:31.059Z,25.96
2019-05-21T12:09:03.471Z,25.84
2019-05-21T12:11:35.107Z,25.93
2019-05-21T12:14:07.018Z,25.44
2019-05-21T12:16:38.663Z,25.29
2019-05-21T12:19:10.396Z,24.95
2019-05-21T12:21:43.450Z,24.65
2019-05-21T12:24:16.061Z,24.53
2019-05-21T12:26:47.874Z,24.48
2019-05-21T12:29:19.839Z,24.33
2019-05-21T12:31:59.536Z,24.06
2019-05-21T12:34:33.757Z,23.73
2019-05-21T12:37:05.973Z,23.12
2019-05-21T12:39:39.084Z,22.74
2019-05-21T12:42:13.165Z,22.38
2019-05-21T12:44:44.987Z,22.17
2019-05-21T12:47:21.081Z,22.17
2019-05-21T12:49:52.632Z,21.92
2019-05-21T12:52:24.733Z,22.05
2019-05-21T12:54:56.357Z,22.33
2019-05-21T12:57:28.036Z,22.59
2019-05-21T12:59:59.980Z,22.91
2019-05-21T13:02:36.403Z,23.08
2019-05-21T13:05:11.572Z,23.42
2019-05-21T13:07:42.830Z,23.75
2019-05-21T13:10:16.272Z,24.12
2019-05-21T13:12:50.734Z,24.63
2019-05-21T13:15:27.662Z,24.60
2019-05-21T13:18:00.710Z,24.60
2019-05-21T13:20:34.388Z,24.71
2019-05-21T13:23:07.826Z,24.59
2019-05-21T13:25:39.469Z,24.55
2019-05-21T13:28:14.419Z,24.48
2019-05-21T13:30:51.936Z,24.36
2019-05-21T13:33:25.370Z,24.35
2019-05-21T13:35:57.285Z,24.21
2019-05-21T13:38:29.240Z,24.18
2019-05-21T13:41:02.137Z,24.60
2019-05-21T13:43:34.234Z,25.13
2019-05-21T13:46:10.107Z,25.44
2019-05-21T13:48:42.463Z,25.54
2019-05-21T13:51:15.059Z,25.89
2019-05-21T13:53:48.852Z,26.01
2019-05-21T13:56:22.405Z,26.15
2019-05-21T13:58:54.395Z,26.18
2019-05-21T14:01:40.238Z,25.78
2019-05-21T14:04:11.579Z,25.48
2019-05-21T14:06:45.359Z,25.03
2019-05-21T14:09:19.509Z,24.38
2019-05-21T14:11:53.079Z,23.80
2019-05-21T14:14:25.006Z,23.52
2019-05-21T14:16:58.867Z,23.37
2019-05-21T14:19:31.083Z,23.27
2019-05-21T14:22:03.567Z,23.24
2019-05-21T14:24:35.220Z,23.29
2019-05-21T14:27:07.625Z,23.11
2019-05-21T14:29:39.468Z,23.16
2019-05-21T14:32:11.300Z,23.15
2019-05-21T14:34:59.935Z,23.10
2019-05-21T14:37:18.531Z,23.22
2019-05-21T14:39:51.579Z,23.04
2019-05-21T14:42:26.405Z,22.88
2019-05-21T14:45:01.208Z,22.88
2019-05-21T14:47:34.325Z,22.97
2019-05-21T14:50:10.668Z,22.96
2019-05-21T14:52:42.279Z,22.98
2019-05-21T14:55:19.885Z,23.02
2019-05-21T14:57:52.867Z,22.82
2019-05-21T15:00:33.922Z,22.89
2019-05-21T15:03:23.847Z,22.65
2019-05-21T15:05:44.552Z,22.66
2019-05-21T15:08:16.418Z,22.69
2019-05-21T15:10:49.535Z,22.78
2019-05-21T15:13:21.806Z,23.01
2019-05-21T15:15:53.539Z,23.12
2019-05-21T15:18:25.294Z,23.27
2019-05-21T15:21:05.070Z,23.63
2019-05-21T15:23:37.616Z,23.64
2019-05-21T15:26:14.082Z,23.58
2019-05-21T15:28:45.872Z,23.84
2019-05-21T15:31:17.631Z,23.76
2019-05-21T15:33:50.906Z,23.64
2019-05-21T15:36:27.161Z,23.61
2019-05-21T15:38:58.853Z,23.55
2019-05-21T15:41:30.895Z,23.71
2019-05-21T15:44:03.008Z,23.60
2019-05-21T15:46:48.582Z,23.33
2019-05-21T15:49:35.191Z,23.34
2019-05-21T15:51:53.220Z,23.22
2019-05-21T15:54:24.989Z,23.10
2019-05-21T15:57:02.760Z,23.06
2019-05-21T15:59:37.271Z,22.94
2019-05-21T16:02:08.930Z,22.92
2019-05-21T16:04:40.582Z,22.89
2019-05-21T16:07:13.565Z,22.95
2019-05-21T16:09:46.262Z,22.90
2019-05-21T16:12:18.055Z,23.12
2019-05-21T16:14:49.797Z,23.04
2019-05-21T16:17:21.813Z,22.97
2019-05-21T16:19:53.549Z,22.65
2019-05-21T16:22:25.384Z,22.58
2019-05-21T16:24:57.123Z,22.51
2019-05-21T16:27:28.884Z,22.43
2019-05-21T16:30:01.902Z,22.41
2019-05-21T16:32:33.646Z,22.30
2019-05-21T16:35:09.701Z,22.12
2019-05-21T16:37:41.236Z,22.12
2019-05-21T16:40:13.992Z,22.11
2019-05-21T16:42:46.225Z,22.06
2019-05-21T16:45:18.380Z,21.95
2019-05-21T16:47:50.029Z,22.01
2019-05-21T16:50:23.416Z,21.94
2019-05-21T16:52:55.088Z,21.92
2019-05-21T16:55:26.819Z,21.93
2019-05-21T16:57:58.567Z,22.04
2019-05-21T17:00:30.818Z,21.96
2019-05-21T17:03:03.908Z,21.96
2019-05-21T17:05:35.660Z,21.88
2019-05-21T17:08:07.484Z,21.86
2019-05-21T17:10:39.296Z,21.78
2019-05-21T17:13:10.999Z,21.56
2019-05-21T17:15:44.071Z,21.47
2019-05-21T17:18:15.753Z,21.36
2019-05-21T17:20:49.593Z,21.34
2019-05-21T17:23:22.875Z,21.25
2019-05-21T17:25:56.397Z,21.18
2019-05-21T17:28:30.333Z,21.13
2019-05-21T17:31:03.006Z,20.98
2019-05-21T17:33:37.652Z,20.93
2019-05-21T17:36:12.058Z,20.80
2019-05-21T17:38:47.196Z,20.79
2019-05-21T17:41:22.622Z,20.74
2019-05-21T17:44:00.009Z,20.73
2019-05-21T17:46:32.354Z,20.67
2019-05-21T17:49:07.350Z,20.59
2019-05-21T17:51:41.988Z,20.59
2019-05-21T17:54:16.208Z,20.56
2019-05-21T17:56:51.357Z,20.50
2019-05-21T17:59:24.510Z,20.48
2019-05-21T18:01:58.140Z,20.43
2019-05-21T18:04:31.833Z,20.34
2019-05-21T18:07:06.934Z,20.31
2019-05-21T18:09:40.791Z,20.26
2019-05-21T18:12:13.971Z,20.23
2019-05-21T18:14:46.171Z,20.17
2019-05-21T18:17:22.302Z,20.12
2019-05-21T18:19:57.822Z,20.11
2019-05-21T18:22:35.253Z,20.08
2019-05-21T18:25:12.966Z,20.08
2019-05-21T18:27:44.936Z,20.00
2019-05-21T18:30:17.431Z,19.92
2019-05-21T18:32:49.656Z,19.79
2019-05-21T18:35:21.309Z,19.72
2019-05-21T18:37:56.019Z,19.61
2019-05-21T18:40:27.893Z,19.44
2019-05-21T18:42:59.761Z,19.18
2019-05-21T18:45:31.785Z,18.33
2019-05-21T18:48:03.759Z,17.95
2019-05-21T18:50:37.108Z,17.46
2019-05-21T18:53:10.135Z,17.11
2019-05-21T18:55:44.722Z,16.86
2019-05-21T18:58:17.611Z,16.71
2019-05-21T19:00:50.033Z,16.67
2019-05-21T19:03:25.623Z,16.66
2019-05-21T19:05:55.846Z,16.72
2019-05-21T19:08:28.304Z,16.79
2019-05-21T19:11:00.234Z,16.81
2019-05-21T19:13:33.472Z,16.85
2019-05-21T19:16:07.134Z,16.85
2019-05-21T19:18:38.971Z,16.79
2019-05-21T19:21:12.067Z,16.80
2019-05-21T19:23:44.868Z,16.82
2019-05-21T19:26:16.420Z,16.82
2019-05-21T19:28:48.409Z,16.82
2019-05-21T19:31:25.527Z,16.83
2019-05-21T19:33:59.750Z,16.83
2019-05-21T19:36:32.102Z,16.83
2019-05-21T19:39:07.379Z,16.81
2019-05-21T19:41:39.435Z,16.82
2019-05-21T19:44:14.806Z,16.86
2019-05-21T19:46:46.727Z,16.86
2019-05-21T19:49:19.739Z,16.88
2019-05-21T19:52:00.340Z,16.88
2019-05-21T19:54:35.610Z,16.93
2019-05-21T19:57:08.385Z,16.91
2019-05-21T19:59:41.288Z,16.91
2019-05-21T20:02:13.800Z,16.90
2019-05-21T20:04:46.464Z,16.89
2019-05-21T20:07:19.436Z,16.87
2019-05-21T20:09:51.774Z,16.87
2019-05-21T20:12:24.135Z,16.93
2019-05-21T20:14:56.211Z,16.93
2019-05-21T20:17:30.401Z,16.97
2019-05-21T20:20:02.055Z,17.01
2019-05-21T20:22:35.167Z,17.01
2019-05-21T20:25:07.749Z,16.97
2019-05-21T20:27:39.537Z,16.89
2019-05-21T20:30:14.329Z,16.85
2019-05-21T20:32:48.361Z,16.82
2019-05-21T20:35:23.675Z,16.78
2019-05-21T20:37:59.843Z,16.78
2019-05-21T20:40:33.170Z,16.74
2019-05-21T20:43:10.150Z,16.69
2019-05-21T20:45:43.891Z,16.68
2019-05-21T20:48:19.544Z,16.65
2019-05-21T20:50:51.460Z,16.61
2019-05-21T20:53:29.782Z,16.60
2019-05-21T20:56:03.730Z,16.63
2019-05-21T20:58:40.697Z,16.67
2019-05-21T21:01:12.538Z,16.70
2019-05-21T21:03:46.959Z,16.70
2019-05-21T21:06:34.343Z,16.73
2019-05-21T21:08:52.485Z,16.75
2019-05-21T21:11:26.689Z,16.82
2019-05-21T21:14:17.506Z,16.84
2019-05-21T21:16:38.963Z,16.83
2019-05-21T21:19:14.368Z,16.82
2019-05-21T21:21:49.223Z,16.79
2019-05-21T21:24:21.255Z,16.69
2019-05-21T21:26:53.653Z,16.60
2019-05-21T21:29:25.801Z,16.55
2019-05-21T21:32:00.940Z,16.46
2019-05-21T21:34:34.437Z,16.40
2019-05-21T21:37:09.271Z,16.36
2019-05-21T21:39:42.963Z,16.28
2019-05-21T21:42:15.020Z,16.21
2019-05-21T21:44:47.341Z,16.14
2019-05-21T21:47:24.869Z,16.07
2019-05-21T21:49:57.684Z,16.07
2019-05-21T21:52:30.878Z,16.05
2019-05-21T21:55:06.202Z,16.03
2019-05-21T21:57:39.541Z,16.08
2019-05-21T22:00:43.347Z,16.06
2019-05-21T22:03:15.799Z,16.09
2019-05-21T22:05:48.087Z,16.10
2019-05-21T22:08:22.278Z,16.10
2019-05-21T22:10:54.687Z,16.05
2019-05-21T22:13:28.917Z,16.08
2019-05-21T22:16:04.693Z,16.13
2019-05-21T22:18:37.306Z,16.16
2019-05-21T22:21:09.411Z,16.19
2019-05-21T22:23:41.320Z,16.21
2019-05-21T22:26:13.648Z,16.23
2019-05-21T22:28:45.936Z,16.25
2019-05-21T22:31:17.803Z,16.24
2019-05-21T22:33:50.015Z,16.24
2019-05-21T22:36:23.774Z,16.20
2019-05-21T22:38:55.588Z,16.16
2019-05-21T22:41:27.363Z,16.16
2019-05-21T22:43:59.373Z,16.14
2019-05-21T22:46:31.611Z,16.10
2019-05-21T22:49:03.258Z,16.06
2019-05-21T22:51:35.025Z,16.05
2019-05-21T22:54:07.200Z,16.03
2019-05-21T22:56:39.160Z,15.99
2019-05-21T22:59:11.445Z,15.95
2019-05-21T23:01:44.568Z,15.93
2019-05-21T23:04:16.471Z,15.90
2019-05-21T23:06:49.847Z,15.90
2019-05-21T23:09:21.829Z,15.89
2019-05-21T23:11:53.691Z,15.86
2019-05-21T23:14:25.433Z,15.86
2019-05-21T23:16:57.932Z,15.83
2019-05-21T23:19:34.511Z,15.83
2019-05-21T23:22:11.639Z,15.81
2019-05-21T23:24:43.481Z,15.80
2019-05-21T23:27:17.838Z,15.78
2019-05-21T23:29:50.231Z,15.78
2019-05-21T23:32:23.685Z,15.77
2019-05-21T23:34:56.158Z,15.74
2019-05-21T23:37:30.689Z,15.77
2019-05-21T23:40:02.399Z,15.76
2019-05-21T23:42:34.502Z,15.73
2019-05-21T23:45:09.026Z,15.75
2019-05-21T23:47:40.959Z,15.73
2019-05-21T23:50:14.381Z,15.73
2019-05-21T23:52:47.371Z,15.70
2019-05-21T23:55:19.279Z,15.69
2019-05-21T23:57:52.117Z,15.68
